Time;durP1;ratioP1;P1;durP2;ratioP2;P2;SDS_P1;SDS_P2;PMS_P1;PMS_P2;Temp;Humidity;BMP_temperature;BMP_pressure;BME280_temperature;BME280_humidity;BME280_pressure;Samples;Min_cycle;Max_cycle;Signal;HPM_P1;HPM_P2
2023/04/30 00:00:09;;;;;;;0.10;0.10;;;;;;;12.53;100.00;99828.28;4836595;29;20052;-92
2023/04/30 00:02:38;;;;;;;0.00;0.00;;;;;;;12.47;100.00;99827.31;4850163;29;20045;-92
2023/04/30 00:05:04;;;;;;;0.00;0.00;;;;;;;12.50;100.00;99843.06;4833978;29;20410;-92
2023/04/30 00:07:30;;;;;;;0.20;0.20;;;;;;;12.44;100.00;99838.56;4826726;29;20078;-93
2023/04/30 00:09:56;;;;;;;0.00;0.00;;;;;;;12.34;100.00;99831.38;4820105;29;20155;-91
2023/04/30 00:12:22;;;;;;;0.15;0.15;;;;;;;12.38;100.00;99848.72;4834114;29;20079;-93
2023/04/30 00:14:48;;;;;;;0.00;0.00;;;;;;;12.35;100.00;99855.19;4835645;29;20037;-92
2023/04/30 00:17:13;;;;;;;0.10;0.10;;;;;;;12.30;100.00;99850.22;4849512;29;20259;-91
2023/04/30 00:19:39;;;;;;;1.25;0.90;;;;;;;12.28;100.00;99849.91;4819553;29;20488;-91
2023/04/30 00:22:05;;;;;;;0.20;0.20;;;;;;;12.23;100.00;99851.25;4820419;29;20078;-93
2023/04/30 00:24:30;;;;;;;0.25;0.25;;;;;;;12.19;100.00;99838.69;4834453;29;20524;-92
2023/04/30 00:26:56;;;;;;;0.10;0.10;;;;;;;12.09;100.00;99844.19;4820518;29;20052;-91
2023/04/30 00:29:21;;;;;;;0.13;0.13;;;;;;;12.13;100.00;99850.41;4825173;29;20045;-91
2023/04/30 00:31:47;;;;;;;0.00;0.00;;;;;;;12.02;100.00;99841.66;4835958;29;20506;-93
2023/04/30 00:34:13;;;;;;;0.30;0.30;;;;;;;12.03;100.00;99846.00;4820292;29;20044;-93
2023/04/30 00:36:39;;;;;;;0.52;0.30;;;;;;;11.96;100.00;99835.16;4819750;29;20049;-91
2023/04/30 00:39:05;;;;;;;0.10;0.10;;;;;;;11.95;100.00;99844.72;4835670;29;20041;-92
2023/04/30 00:41:31;;;;;;;0.65;0.57;;;;;;;11.97;100.00;99841.50;4822844;29;20049;-92
2023/04/30 00:43:57;;;;;;;0.08;0.03;;;;;;;11.85;100.00;99837.50;4819149;29;20052;-92
2023/04/30 00:46:22;;;;;;;0.68;0.63;;;;;;;11.78;100.00;99823.88;4819556;29;20045;-92
2023/04/30 00:48:48;;;;;;;0.22;0.22;;;;;;;11.86;100.00;99843.84;4827326;29;20781;-91
2023/04/30 00:51:15;;;;;;;0.00;0.00;;;;;;;11.88;100.00;99850.53;4827041;29;20037;-92
2023/04/30 00:53:40;;;;;;;0.38;0.32;;;;;;;11.80;100.00;99834.53;4834322;29;20064;-91
2023/04/30 00:56:08;;;;;;;0.08;0.08;;;;;;;11.86;100.00;99839.06;4835050;29;20197;-92
2023/04/30 00:58:34;;;;;;;0.10;0.10;;;;;;;11.88;100.00;99838.63;4835174;29;20091;-92
2023/04/30 01:03:42;;;;;;;0.43;0.43;;;;;;;11.94;100.00;99853.50;3808064;23;20182;-91
2023/04/30 01:06:07;;;;;;;1.45;0.63;;;;;;;11.90;100.00;99847.28;4867563;29;20066;-91
2023/04/30 01:08:33;;;;;;;1.00;1.00;;;;;;;11.91;100.00;99855.19;4856922;29;20043;-91
2023/04/30 01:11:16;;;;;;;0.32;0.32;;;;;;;11.88;100.00;99855.31;4852503;29;20377;-91
2023/04/30 01:13:52;;;;;;;0.85;0.85;;;;;;;11.93;100.00;99852.72;4858703;29;20044;-92
2023/04/30 01:16:32;;;;;;;0.03;0.03;;;;;;;11.95;100.00;99855.81;4888176;29;20088;-91
2023/04/30 01:19:08;;;;;;;0.15;0.10;;;;;;;11.97;100.00;99852.59;4855579;29;20063;-91
2023/04/30 01:21:34;;;;;;;1.35;0.55;;;;;;;11.99;100.00;99853.69;4849077;29;20055;-91
2023/04/30 01:24:37;;;;;;;1.30;1.20;;;;;;;11.99;100.00;99850.91;4854845;29;20132;-92
2023/04/30 01:27:11;;;;;;;0.15;0.15;;;;;;;11.98;100.00;99849.34;4873420;29;20048;-93
2023/04/30 01:29:38;;;;;;;0.47;0.47;;;;;;;11.95;100.00;99839.16;4869648;29;20119;-92
2023/04/30 01:32:04;;;;;;;1.02;0.57;;;;;;;11.91;100.00;99838.50;4853678;29;20138;-91
2023/04/30 01:34:30;;;;;;;0.28;0.28;;;;;;;11.93;100.00;99852.72;4869935;29;20054;-91
2023/04/30 01:37:17;;;;;;;0.17;0.17;;;;;;;11.93;100.00;99852.72;4855692;29;20128;-92
2023/04/30 01:40:03;;;;;;;4.28;0.45;;;;;;;11.93;100.00;99852.72;4875915;29;20512;-90
2023/04/30 01:42:51;;;;;;;1.33;1.02;;;;;;;11.94;100.00;99851.50;4848873;29;20070;-91
2023/04/30 01:45:34;;;;;;;0.20;0.13;;;;;;;11.94;100.00;99851.50;4871259;29;21232;-90
2023/04/30 01:48:31;;;;;;;0.77;0.52;;;;;;;11.86;100.00;99850.19;4857771;29;20044;-93
2023/04/30 01:51:11;;;;;;;0.70;0.70;;;;;;;11.89;100.00;99859.66;4867579;29;20504;-90
2023/04/30 01:53:42;;;;;;;0.15;0.15;;;;;;;11.84;100.00;99861.00;4882874;29;20512;-93
2023/04/30 01:56:26;;;;;;;1.33;0.77;;;;;;;11.85;100.00;99859.75;4872844;29;20057;-91
2023/04/30 01:58:52;;;;;;;0.45;0.45;;;;;;;11.82;100.00;99863.44;4870097;29;20108;-90
2023/04/30 02:01:29;;;;;;;0.03;0.03;;;;;;;11.85;100.00;99861.78;4865331;29;20044;-92
2023/04/30 02:03:54;;;;;;;0.32;0.32;;;;;;;11.81;100.00;99864.66;4860355;29;20052;-91
2023/04/30 02:06:20;;;;;;;0.63;0.50;;;;;;;11.84;100.00;99872.09;4840079;29;20052;-91
2023/04/30 02:08:46;;;;;;;1.20;0.90;;;;;;;11.83;100.00;99876.09;4839418;29;20701;-92
2023/04/30 02:11:11;;;;;;;3.50;2.33;;;;;;;11.82;100.00;99882.09;4838078;29;20045;-91
2023/04/30 02:13:38;;;;;;;3.53;0.75;;;;;;;11.77;100.00;99866.78;4838330;29;20092;-91
2023/04/30 02:16:04;;;;;;;1.20;0.68;;;;;;;11.73;100.00;99870.91;4850929;29;20416;-91
2023/04/30 02:18:30;;;;;;;0.57;0.57;;;;;;;11.80;100.00;99884.56;4837928;29;20524;-91
2023/04/30 02:20:56;;;;;;;0.47;0.47;;;;;;;11.79;100.00;99875.44;4844453;29;20040;-91
2023/04/30 02:23:21;;;;;;;3.60;1.35;;;;;;;11.79;100.00;99874.66;4853127;29;20055;-91
2023/04/30 02:25:47;;;;;;;0.45;0.45;;;;;;;11.81;100.00;99888.91;4849486;29;20047;-91
2023/04/30 02:28:13;;;;;;;0.00;0.00;;;;;;;11.80;100.00;99890.13;4864121;29;20523;-91
2023/04/30 02:30:38;;;;;;;0.55;0.55;;;;;;;11.80;100.00;99898.47;4860269;29;20040;-90
2023/04/30 02:33:04;;;;;;;0.43;0.38;;;;;;;11.71;100.00;99896.34;4860047;29;20049;-91
2023/04/30 02:35:30;;;;;;;0.55;0.55;;;;;;;11.73;100.00;99899.47;4821316;29;20060;-92
2023/04/30 02:37:55;;;;;;;1.27;0.98;;;;;;;11.70;100.00;99900.34;4839604;29;20045;-91
2023/04/30 02:40:21;;;;;;;0.22;0.22;;;;;;;11.68;100.00;99906.34;4864427;29;20048;-93
2023/04/30 02:42:47;;;;;;;0.10;0.10;;;;;;;11.69;100.00;99909.88;4838681;29;20048;-91
2023/04/30 02:45:14;;;;;;;0.47;0.47;;;;;;;11.71;100.00;99910.22;4843399;29;20044;-92
2023/04/30 02:47:40;;;;;;;1.13;0.85;;;;;;;11.68;100.00;99909.13;4855913;29;20041;-90
2023/04/30 02:50:06;;;;;;;0.45;0.45;;;;;;;11.61;100.00;99914.91;4847921;29;20044;-89
2023/04/30 02:52:32;;;;;;;0.35;0.35;;;;;;;11.60;100.00;99915.38;4851111;29;20040;-91
2023/04/30 02:54:58;;;;;;;0.73;0.57;;;;;;;11.58;100.00;99923.34;4854797;29;20045;-91
2023/04/30 02:57:23;;;;;;;0.28;0.28;;;;;;;11.56;100.00;99906.38;4843622;29;20051;-91
2023/04/30 02:59:49;;;;;;;0.80;0.80;;;;;;;11.57;100.00;99917.03;4859127;29;20647;-91
2023/04/30 03:02:15;;;;;;;0.47;0.47;;;;;;;11.54;100.00;99922.69;4856237;29;20052;-90
2023/04/30 03:04:41;;;;;;;1.65;0.50;;;;;;;11.52;100.00;99905.72;4840981;29;20044;-91
2023/04/30 03:07:06;;;;;;;0.57;0.57;;;;;;;11.48;100.00;99913.38;4856167;29;20543;-92
2023/04/30 03:09:33;;;;;;;0.60;0.60;;;;;;;11.52;100.00;99916.81;4842318;29;20052;-91
2023/04/30 03:11:59;;;;;;;2.47;1.60;;;;;;;11.52;100.00;99919.59;4859294;29;20051;-92
2023/04/30 03:14:25;;;;;;;0.88;0.85;;;;;;;11.53;100.00;99918.34;4845380;29;20048;-91
2023/04/30 03:16:51;;;;;;;0.90;0.80;;;;;;;11.56;100.00;99923.81;4858070;29;20037;-91
2023/04/30 03:19:20;;;;;;;0.63;0.63;;;;;;;11.52;100.00;99920.38;4856903;29;20045;-91
2023/04/30 03:21:46;;;;;;;0.90;0.90;;;;;;;11.54;100.00;99925.47;4855149;29;20075;-91
2023/04/30 03:24:12;;;;;;;1.25;1.08;;;;;;;11.54;100.00;99919.91;4867658;29;20564;-91
2023/04/30 03:26:38;;;;;;;0.55;0.55;;;;;;;11.50;100.00;99922.03;4870594;29;20052;-91
2023/04/30 03:29:03;;;;;;;1.48;1.27;;;;;;;11.51;100.00;99926.38;4858122;29;20040;-92
2023/04/30 03:31:30;;;;;;;0.50;0.50;;;;;;;11.37;100.00;99922.03;4857252;29;20040;-92
2023/04/30 03:33:55;;;;;;;1.20;0.88;;;;;;;11.46;100.00;99930.47;4841186;29;20040;-91
2023/04/30 03:36:21;;;;;;;0.98;0.88;;;;;;;11.40;100.00;99932.28;4855307;29;20043;-91
2023/04/30 03:38:47;;;;;;;0.80;0.80;;;;;;;11.40;100.00;99932.28;4851892;29;20064;-92
2023/04/30 03:41:12;;;;;;;2.53;1.75;;;;;;;11.35;100.00;99935.59;4855781;29;20470;-92
2023/04/30 03:43:38;;;;;;;1.33;0.90;;;;;;;11.40;100.00;99942.59;4841599;29;20422;-90
2023/04/30 03:46:04;;;;;;;0.85;0.57;;;;;;;11.38;100.00;99950.59;4838755;29;20049;-90
2023/04/30 03:48:30;;;;;;;0.73;0.73;;;;;;;11.33;100.00;99951.13;4856667;29;20051;-91
2023/04/30 03:50:56;;;;;;;0.47;0.43;;;;;;;11.31;100.00;99961.94;4837794;29;20382;-91
2023/04/30 03:53:22;;;;;;;1.58;1.05;;;;;;;11.29;100.00;99958.81;4854458;29;20051;-90
2023/04/30 03:55:49;;;;;;;0.77;0.77;;;;;;;11.24;100.00;99958.13;4871462;29;20067;-91
2023/04/30 03:58:14;;;;;;;1.33;1.23;;;;;;;11.23;100.00;99947.50;4834630;29;20520;-90
2023/04/30 04:00:40;;;;;;;0.30;0.30;;;;;;;11.24;100.00;99955.34;4853233;29;20052;-90
2023/04/30 04:03:06;;;;;;;1.73;0.73;;;;;;;11.26;100.00;99954.13;4839003;29;20489;-92
2023/04/30 04:05:33;;;;;;;0.77;0.77;;;;;;;11.19;100.00;99955.94;4851702;29;20266;-90
2023/04/30 04:07:58;;;;;;;0.38;0.38;;;;;;;11.17;100.00;99963.91;4855493;29;20792;-92
2023/04/30 04:10:24;;;;;;;1.02;0.88;;;;;;;11.12;100.00;99947.78;4838530;29;20041;-90
2023/04/30 04:12:50;;;;;;;0.40;0.40;;;;;;;11.16;100.00;99973.44;4838519;29;20831;-92
2023/04/30 04:15:15;;;;;;;0.25;0.25;;;;;;;11.12;100.00;99970.00;4840906;29;20140;-91
2023/04/30 04:17:43;;;;;;;0.75;0.75;;;;;;;11.11;100.00;99985.13;4852529;29;20076;-92
2023/04/30 04:20:09;;;;;;;0.57;0.57;;;;;;;11.12;100.00;99983.13;4855196;29;20039;-91
2023/04/30 04:22:39;;;;;;;2.25;2.05;;;;;;;11.08;100.00;99974.13;4853908;29;20044;-93
2023/04/30 04:25:05;;;;;;;0.88;0.70;;;;;;;11.08;100.00;99988.00;4857296;29;20135;-92
2023/04/30 04:27:33;;;;;;;0.57;0.57;;;;;;;11.05;100.00;99986.09;4873006;29;20108;-93
2023/04/30 04:29:58;;;;;;;0.65;0.65;;;;;;;11.09;100.00;99989.53;4871717;29;20053;-90
2023/04/30 04:32:24;;;;;;;0.75;0.75;;;;;;;11.09;100.00;100004.19;4855458;29;20523;-91
2023/04/30 04:34:53;;;;;;;0.95;0.95;;;;;;;11.07;100.00;100000.31;4847548;29;20062;-90
2023/04/30 04:37:19;;;;;;;1.20;0.57;;;;;;;11.04;100.00;100001.22;4853651;29;20041;-93
2023/04/30 04:39:45;;;;;;;1.60;0.82;;;;;;;11.09;100.00;100012.53;4854909;29;20549;-92
2023/04/30 04:42:12;;;;;;;0.63;0.63;;;;;;;11.13;100.00;99998.53;4840401;29;20536;-92
2023/04/30 04:44:38;;;;;;;1.38;1.27;;;;;;;11.13;100.00;100010.44;4838803;29;20049;-92
2023/04/30 04:47:04;;;;;;;1.05;0.82;;;;;;;11.17;100.00;100013.09;4853715;29;20155;-92
2023/04/30 04:49:30;;;;;;;0.65;0.52;;;;;;;11.16;100.00;100014.34;4866372;29;20095;-91
2023/04/30 04:51:56;;;;;;;0.40;0.40;;;;;;;11.20;100.00;100026.88;4842265;29;20066;-91
2023/04/30 04:54:22;;;;;;;1.70;1.60;;;;;;;11.22;100.00;100040.31;4867734;29;20044;-91
2023/04/30 04:56:48;;;;;;;1.65;1.45;;;;;;;11.20;100.00;100037.97;4863449;29;20117;-92
2023/04/30 04:59:16;;;;;;;0.47;0.47;;;;;;;11.22;100.00;100043.88;4870112;29;20131;-92
2023/04/30 05:01:43;;;;;;;2.45;2.25;;;;;;;11.20;100.00;100053.88;4864139;29;20048;-91
2023/04/30 05:04:12;;;;;;;2.08;1.92;;;;;;;11.18;100.00;100051.53;4855560;29;20045;-93
2023/04/30 05:06:38;;;;;;;0.80;0.80;;;;;;;11.17;100.00;100044.41;4854676;29;20079;-91
2023/04/30 05:09:07;;;;;;;1.10;0.95;;;;;;;11.15;100.00;100044.09;4845655;29;20076;-92
2023/04/30 05:11:33;;;;;;;0.00;0.00;;;;;;;11.14;100.00;100036.19;4848507;29;20393;-92
2023/04/30 05:13:59;;;;;;;0.90;0.82;;;;;;;11.18;100.00;100051.53;4870194;29;20040;-91
2023/04/30 05:16:25;;;;;;;1.63;1.52;;;;;;;11.23;100.00;100053.00;4875931;29;20041;-91
2023/04/30 05:18:51;;;;;;;0.15;0.15;;;;;;;11.26;100.00;100059.66;4867220;29;20036;-91
2023/04/30 05:21:16;;;;;;;1.83;1.33;;;;;;;11.31;100.00;100051.56;4848162;29;20075;-91
2023/04/30 05:23:43;;;;;;;0.68;0.68;;;;;;;11.32;100.00;100057.91;4868473;29;20052;-91
2023/04/30 05:26:09;;;;;;;1.10;1.02;;;;;;;11.34;100.00;100050.69;4845978;29;20131;-90
2023/04/30 05:28:35;;;;;;;0.75;0.75;;;;;;;11.45;100.00;100058.69;4845564;29;20124;-91
2023/04/30 05:31:00;;;;;;;1.95;0.85;;;;;;;11.55;100.00;100066.72;4845003;29;20060;-91
2023/04/30 05:33:26;;;;;;;0.75;0.55;;;;;;;11.59;100.00;100074.94;4858333;29;20045;-91
2023/04/30 05:35:52;;;;;;;1.58;1.35;;;;;;;11.66;100.00;100078.28;4853339;29;20050;-91
2023/04/30 05:38:17;;;;;;;0.20;0.20;;;;;;;11.64;100.00;100052.16;4863360;29;20037;-91
2023/04/30 05:40:43;;;;;;;0.22;0.22;;;;;;;11.73;100.00;100076.53;4846370;29;20056;-92
2023/04/30 05:43:09;;;;;;;0.93;0.77;;;;;;;11.76;100.00;100065.31;4853597;29;20047;-92
2023/04/30 05:45:34;;;;;;;1.40;1.30;;;;;;;11.68;100.00;100056.41;4878623;29;20059;-91
2023/04/30 05:48:00;;;;;;;1.00;0.95;;;;;;;11.75;100.00;100063.75;4846725;29;20044;-91
2023/04/30 05:50:26;;;;;;;1.42;1.33;;;;;;;11.69;100.00;100073.81;4875849;29;20052;-91
2023/04/30 05:52:52;;;;;;;1.55;1.23;;;;;;;11.64;100.00;100074.41;4878313;29;20100;-92
2023/04/30 05:55:17;;;;;;;0.68;0.68;;;;;;;11.66;100.00;100083.84;4846326;29;20467;-91
2023/04/30 05:57:43;;;;;;;0.85;0.77;;;;;;;11.69;100.00;100087.72;4876271;29;20037;-91
2023/04/30 06:00:09;;;;;;;0.63;0.57;;;;;;;11.78;100.00;100084.31;4865390;29;20044;-92
2023/04/30 06:02:41;;;;;;;0.73;0.73;;;;;;;11.87;100.00;100071.31;4859521;29;20054;-90
2023/04/30 06:05:07;;;;;;;1.55;1.45;;;;;;;12.01;100.00;100065.28;4875376;29;20044;-91
2023/04/30 06:07:32;;;;;;;1.65;1.05;;;;;;;12.20;100.00;100065.50;4865314;29;20044;-91
2023/04/30 06:09:58;;;;;;;1.00;0.98;;;;;;;12.29;100.00;100068.38;4859070;29;20472;-94
2023/04/30 06:12:24;;;;;;;0.43;0.32;;;;;;;12.42;100.00;100071.91;4843108;29;20056;-90
2023/04/30 06:14:51;;;;;;;0.68;0.68;;;;;;;12.55;100.00;100075.44;4859429;29;20052;-91
2023/04/30 06:17:16;;;;;;;6.85;1.75;;;;;;;12.64;100.00;100067.19;4860247;29;20060;-92
2023/04/30 06:19:42;;;;;;;0.55;0.55;;;;;;;12.76;100.00;100069.13;4855669;29;20174;-91
2023/04/30 06:22:08;;;;;;;0.80;0.80;;;;;;;12.83;100.00;100073.66;4844737;29;20049;-90
2023/04/30 06:24:33;;;;;;;1.63;1.33;;;;;;;12.75;100.00;100087.06;4844411;29;20420;-91
2023/04/30 06:27:00;;;;;;;0.40;0.40;;;;;;;12.66;100.00;100053.56;4844933;29;20052;-93
2023/04/30 06:29:25;;;;;;;1.60;1.10;;;;;;;12.48;100.00;100081.25;4845786;29;20564;-91
2023/04/30 06:31:51;;;;;;;1.38;1.27;;;;;;;12.43;100.00;100087.38;4863343;29;20042;-92
2023/04/30 06:34:23;;;;;;;0.90;0.90;;;;;;;12.67;100.00;100082.97;4864237;29;20512;-91
2023/04/30 06:36:50;;;;;;;3.70;1.77;;;;;;;12.89;100.00;100061.53;4863128;29;20045;-93
2023/04/30 06:39:18;;;;;;;2.95;1.85;;;;;;;13.18;100.00;100082.81;4856686;29;20622;-91
2023/04/30 06:41:46;;;;;;;0.55;0.47;;;;;;;12.81;100.00;100076.91;4859349;29;20432;-92
2023/04/30 06:44:12;;;;;;;0.90;0.90;;;;;;;12.63;100.00;100093.44;4860453;29;20043;-92
2023/04/30 06:49:20;;;;;;;3.35;1.23;;;;;;;12.46;100.00;100092.03;4192131;27;20045;-87
2023/04/30 06:51:45;;;;;;;0.82;0.70;;;;;;;12.29;100.00;100096.19;4851128;29;20403;-87
2023/04/30 06:54:11;;;;;;;2.05;1.40;;;;;;;12.37;100.00;100092.75;4866246;29;20056;-87
2023/04/30 06:56:36;;;;;;;0.75;0.75;;;;;;;12.39;100.00;100078.38;4855409;29;20032;-86
2023/04/30 06:59:02;;;;;;;1.63;1.52;;;;;;;12.28;100.00;100058.47;4875578;29;20048;-86
2023/04/30 07:01:28;;;;;;;0.43;0.43;;;;;;;12.43;100.00;100074.25;4877429;29;20048;-88
2023/04/30 07:03:54;;;;;;;0.47;0.47;;;;;;;12.36;100.00;100065.38;4912182;29;20113;-87
2023/04/30 07:06:20;;;;;;;0.82;0.82;;;;;;;12.50;100.00;100101.03;4876016;29;20049;-86
2023/04/30 07:08:45;;;;;;;2.97;1.67;;;;;;;12.54;100.00;100099.69;4877034;29;20048;-87
2023/04/30 07:11:11;;;;;;;1.50;0.95;;;;;;;12.50;100.00;100093.47;4874906;29;20099;-87
2023/04/30 07:13:37;;;;;;;0.93;0.88;;;;;;;12.52;100.00;100104.16;4891099;29;20108;-87
2023/04/30 07:16:04;;;;;;;1.15;1.05;;;;;;;12.81;100.00;100099.19;4876914;29;20052;-87
2023/04/30 07:18:30;;;;;;;0.77;0.77;;;;;;;13.43;100.00;100089.00;4871920;29;20645;-87
2023/04/30 07:20:55;;;;;;;0.93;0.85;;;;;;;13.81;100.00;100068.44;4859422;29;20469;-87
2023/04/30 07:23:21;;;;;;;2.20;1.58;;;;;;;13.79;100.00;100066.09;4877710;29;20135;-87
2023/04/30 07:25:47;;;;;;;0.38;0.38;;;;;;;13.91;100.00;100090.31;4893711;29;20055;-87
2023/04/30 07:28:12;;;;;;;1.88;1.60;;;;;;;13.69;100.00;100097.19;4881407;29;20425;-87
2023/04/30 07:30:38;;;;;;;0.80;0.80;;;;;;;13.67;100.00;100103.22;4879004;29;20494;-86
2023/04/30 07:33:04;;;;;;;1.17;1.08;;;;;;;13.50;100.00;100074.03;4866290;29;20037;-88
2023/04/30 07:35:29;;;;;;;2.00;1.65;;;;;;;13.94;100.00;100111.72;4892091;29;20056;-87
2023/04/30 07:37:55;;;;;;;1.77;1.08;;;;;;;14.28;100.00;100101.59;4880904;29;20088;-86
2023/04/30 07:40:24;;;;;;;2.30;1.55;;;;;;;14.63;100.00;100105.75;4878251;29;20119;-88
2023/04/30 07:42:50;;;;;;;1.27;1.20;;;;;;;14.92;100.00;100120.03;4879927;29;20048;-88
2023/04/30 07:45:15;;;;;;;1.23;1.13;;;;;;;14.65;100.00;100100.47;4869884;29;20035;-87
2023/04/30 07:47:41;;;;;;;1.48;1.38;;;;;;;14.71;100.00;100093.06;4880615;29;20395;-86
2023/04/30 07:50:06;;;;;;;0.70;0.65;;;;;;;14.96;100.00;100099.59;4861771;29;20044;-87
2023/04/30 07:52:32;;;;;;;0.90;0.90;;;;;;;14.97;100.00;100109.50;4883248;29;20502;-88
2023/04/30 07:54:57;;;;;;;1.58;1.48;;;;;;;14.51;100.00;100123.41;4912448;29;20040;-87
2023/04/30 07:57:25;;;;;;;2.47;1.45;;;;;;;14.53;100.00;100111.78;4878355;29;20392;-87
2023/04/30 07:59:52;;;;;;;0.85;0.85;;;;;;;14.63;100.00;100114.13;4881747;29;20545;-87
2023/04/30 08:02:18;;;;;;;0.63;0.57;;;;;;;14.67;100.00;100134.31;4886000;29;20063;-86
2023/04/30 08:04:43;;;;;;;1.50;1.40;;;;;;;14.78;100.00;100115.09;4878692;29;20052;-86
2023/04/30 08:07:09;;;;;;;2.05;0.50;;;;;;;15.29;100.00;100139.59;4889815;29;20052;-87
2023/04/30 08:09:34;;;;;;;1.90;1.73;;;;;;;15.42;100.00;100117.84;4881499;29;20434;-87
2023/04/30 08:12:00;;;;;;;4.05;0.82;;;;;;;15.25;100.00;100122.22;4869891;29;20036;-87
2023/04/30 08:14:26;;;;;;;1.35;1.25;;;;;;;15.15;100.00;100123.47;4897460;29;20402;-87
2023/04/30 08:16:54;;;;;;;1.08;0.98;;;;;;;15.71;100.00;100126.53;4881539;29;20044;-87
2023/04/30 08:19:20;;;;;;;0.90;0.90;;;;;;;15.90;100.00;100146.81;4874334;29;20052;-85
2023/04/30 08:21:45;;;;;;;1.95;1.85;;;;;;;15.72;100.00;100135.69;4908543;29;20071;-85
2023/04/30 08:24:11;;;;;;;0.28;0.28;;;;;;;15.55;100.00;100135.25;4890053;29;20044;-87
2023/04/30 08:26:36;;;;;;;3.47;1.67;;;;;;;15.53;100.00;100143.31;4893231;29;20110;-90
2023/04/30 08:29:02;;;;;;;1.67;0.90;;;;;;;15.70;100.00;100108.19;4878172;29;20042;-89
2023/04/30 08:31:28;;;;;;;1.40;0.65;;;;;;;16.19;100.00;100157.44;4892908;29;20119;-89
2023/04/30 08:33:56;;;;;;;0.25;0.25;;;;;;;16.15;98.37;100109.28;4875891;29;20660;-89
2023/04/30 09:08:16;;;;;;;0.68;0.57;;;;;;;19.07;65.66;100130.31;1412962;27;20044;-88
2023/04/30 09:10:42;;;;;;;0.22;0.15;;;;;;;19.06;67.30;100125.97;4895624;29;20128;-89
2023/04/30 09:13:08;;;;;;;0.52;0.52;;;;;;;19.22;67.78;100114.13;4875148;29;20099;-88
2023/04/30 09:15:36;;;;;;;0.20;0.20;;;;;;;19.24;67.63;100114.44;4899170;29;20048;-88
2023/04/30 09:18:06;;;;;;;0.75;0.75;;;;;;;19.42;66.21;100116.13;4892742;29;20505;-89
2023/04/30 09:20:31;;;;;;;0.70;0.70;;;;;;;18.73;64.84;100119.91;4857107;29;20067;-89
2023/04/30 09:23:07;;;;;;;0.95;0.73;;;;;;;18.25;68.04;100111.06;4875471;29;20401;-89
2023/04/30 09:25:40;;;;;;;0.50;0.50;;;;;;;18.46;68.59;100137.91;4885586;29;20043;-88
2023/04/30 09:28:08;;;;;;;1.45;1.30;;;;;;;18.45;65.92;100089.41;4879667;29;20051;-87
2023/04/30 09:30:33;;;;;;;0.52;0.50;;;;;;;19.30;63.83;100120.88;4895057;29;20048;-87
2023/04/30 09:32:59;;;;;;;0.60;0.57;;;;;;;19.38;60.78;100133.22;4877451;29;20052;-88
2023/04/30 09:35:38;;;;;;;1.38;1.00;;;;;;;19.88;59.37;100142.19;4889991;29;20048;-88
2023/04/30 09:38:05;;;;;;;1.05;0.95;;;;;;;19.68;54.21;100138.69;4871960;29;20096;-87
2023/04/30 09:40:38;;;;;;;0.43;0.43;;;;;;;19.73;55.24;100112.63;4890724;29;20149;-88
2023/04/30 09:43:04;;;;;;;0.40;0.40;;;;;;;19.45;56.05;100132.81;4906430;29;20072;-87
2023/04/30 09:45:46;;;;;;;0.10;0.10;;;;;;;19.27;56.94;100138.75;4875666;29;20095;-89
2023/04/30 09:48:11;;;;;;;0.68;0.68;;;;;;;18.67;58.36;100124.72;4891561;29;20059;-88
2023/04/30 09:50:39;;;;;;;0.20;0.20;;;;;;;18.43;59.32;100133.28;4892076;29;20479;-87
2023/04/30 09:53:08;;;;;;;0.60;0.60;;;;;;;18.37;52.44;100124.78;4909236;29;20036;-88
2023/04/30 09:55:35;;;;;;;0.20;0.20;;;;;;;18.80;54.72;100136.38;4888044;29;20040;-87
2023/04/30 09:58:07;;;;;;;1.27;0.38;;;;;;;19.17;55.84;100114.84;4878310;29;20055;-87
2023/04/30 10:00:33;;;;;;;0.50;0.50;;;;;;;18.99;52.77;100121.56;4885848;29;20048;-88
2023/04/30 10:03:03;;;;;;;0.17;0.17;;;;;;;18.27;51.16;100137.41;4906495;29;20079;-88
2023/04/30 10:05:29;;;;;;;1.10;0.60;;;;;;;18.06;53.33;100130.16;4908168;29;20122;-89
2023/04/30 10:07:55;;;;;;;0.00;0.00;;;;;;;18.09;54.75;100126.38;4902790;29;20091;-89
2023/04/30 10:10:21;;;;;;;0.65;0.65;;;;;;;17.95;54.33;100132.81;4926751;29;20036;-89
2023/04/30 10:12:53;;;;;;;0.77;0.38;;;;;;;17.66;55.16;100131.56;4909455;29;20641;-88
2023/04/30 10:15:25;;;;;;;0.28;0.28;;;;;;;17.76;57.79;100132.22;4896137;29;20047;-89
2023/04/30 10:18:03;;;;;;;0.10;0.10;;;;;;;18.18;58.48;100118.63;4890595;29;20071;-89
2023/04/30 10:20:30;;;;;;;0.28;0.25;;;;;;;18.51;55.84;100123.97;4897449;29;20056;-88
2023/04/30 10:22:56;;;;;;;0.13;0.13;;;;;;;18.73;53.44;100123.50;4896397;29;20048;-88
2023/04/30 10:25:22;;;;;;;0.10;0.10;;;;;;;18.71;53.76;100114.03;4902115;29;20562;-88
2023/04/30 10:27:47;;;;;;;0.20;0.20;;;;;;;18.97;53.65;100120.47;4921702;29;20040;-88
2023/04/30 10:30:13;;;;;;;0.50;0.28;;;;;;;19.16;50.96;100115.34;4919737;29;20507;-87
2023/04/30 10:33:18;;;;;;;0.45;0.45;;;;;;;19.22;52.44;100118.97;4884110;29;20062;-88
2023/04/30 10:36:01;;;;;;;0.85;0.70;;;;;;;18.92;50.51;100113.56;4889010;29;20075;-88
2023/04/30 10:38:28;;;;;;;1.40;0.80;;;;;;;18.58;52.86;100123.56;4905868;29;20320;-89
2023/04/30 10:40:58;;;;;;;0.88;0.68;;;;;;;18.86;48.70;100125.97;4878364;29;20046;-88
2023/04/30 10:43:24;;;;;;;0.65;0.55;;;;;;;19.03;49.33;100110.09;4889505;29;20055;-88
2023/04/30 10:45:50;;;;;;;0.43;0.43;;;;;;;18.87;50.15;100110.66;4882722;29;20040;-89
2023/04/30 10:48:23;;;;;;;0.47;0.47;;;;;;;18.55;53.01;100109.75;4918612;29;20039;-88
2023/04/30 10:50:54;;;;;;;0.52;0.52;;;;;;;18.36;52.57;100123.22;4895204;29;20044;-88
2023/04/30 10:53:21;;;;;;;0.38;0.38;;;;;;;18.10;54.46;100113.91;4923749;29;20039;-88
2023/04/30 10:55:58;;;;;;;1.05;0.77;;;;;;;18.47;52.68;100103.75;4893748;29;20103;-87
2023/04/30 10:58:33;;;;;;;0.43;0.43;;;;;;;18.73;51.15;100108.69;4918454;29;20110;-87
2023/04/30 11:01:04;;;;;;;0.55;0.47;;;;;;;19.27;51.48;100115.47;4906222;29;20130;-88
2023/04/30 11:03:31;;;;;;;0.20;0.20;;;;;;;19.55;49.52;100116.56;4911881;29;20127;-87
2023/04/30 11:06:02;;;;;;;0.43;0.38;;;;;;;19.80;50.62;100100.91;4909364;29;20051;-86
2023/04/30 11:08:36;;;;;;;0.30;0.30;;;;;;;20.14;47.62;100116.78;4909998;29;20139;-89
2023/04/30 11:11:03;;;;;;;0.47;0.38;;;;;;;20.61;49.42;100108.94;4927570;29;20120;-87
2023/04/30 11:13:39;;;;;;;1.67;0.40;;;;;;;20.37;46.53;100093.19;4922768;29;20569;-87
2023/04/30 11:16:04;;;;;;;0.43;0.43;;;;;;;20.46;45.27;100090.13;4902464;29;20042;-88
2023/04/30 11:18:30;;;;;;;0.17;0.17;;;;;;;20.56;45.16;100104.03;4891620;29;20024;-87
2023/04/30 11:20:56;;;;;;;0.52;0.52;;;;;;;20.38;42.51;100103.16;4902545;29;20086;-88
2023/04/30 11:23:23;;;;;;;0.32;0.32;;;;;;;20.57;43.91;100111.22;4892857;29;20513;-88
2023/04/30 11:25:53;;;;;;;0.65;0.65;;;;;;;20.84;42.18;100113.38;4901818;29;20055;-88
2023/04/30 11:28:24;;;;;;;0.75;0.63;;;;;;;20.91;40.35;100093.94;4909218;29;20036;-88
2023/04/30 11:30:50;;;;;;;0.10;0.10;;;;;;;21.01;41.20;100105.78;4926322;29;20073;-86
2023/04/30 11:33:17;;;;;;;0.40;0.40;;;;;;;21.27;43.68;100097.91;4923196;29;20095;-87
2023/04/30 11:35:42;;;;;;;0.20;0.20;;;;;;;21.48;42.41;100086.41;4928027;29;20159;-88
2023/04/30 11:38:08;;;;;;;0.40;0.30;;;;;;;21.43;41.79;100090.03;4909165;29;20496;-88
2023/04/30 11:40:35;;;;;;;0.30;0.30;;;;;;;21.55;40.62;100081.06;4908143;29;20099;-89
2023/04/30 11:43:01;;;;;;;0.70;0.52;;;;;;;21.56;39.26;100087.44;4886532;29;20496;-88
2023/04/30 11:45:26;;;;;;;0.50;0.50;;;;;;;20.98;39.52;100087.06;4888948;29;20048;-89
2023/04/30 11:47:53;;;;;;;0.20;0.20;;;;;;;20.94;39.80;100064.75;4888128;29;20040;-89
2023/04/30 11:50:26;;;;;;;0.50;0.50;;;;;;;21.32;39.55;100096.41;4900809;29;20114;-88
2023/04/30 11:52:52;;;;;;;0.32;0.30;;;;;;;21.19;39.78;100098.94;4881948;29;20040;-88
2023/04/30 11:55:23;;;;;;;0.25;0.25;;;;;;;20.60;38.85;100105.34;4869296;29;20604;-88
2023/04/30 11:57:52;;;;;;;1.48;0.40;;;;;;;20.23;41.05;100099.69;4921607;29;21598;-91
2023/04/30 12:00:19;;;;;;;0.50;0.50;;;;;;;19.45;41.70;100099.06;4881380;29;20036;-88